This is the latest recevied weather packets stored in our database for station/object WA4OPQ-3. If no packets are shown the sender has not sent any weather packets the latest 10 day(s).
| Time | Temp. | Humidity | Pressure | Rain* | Wind** | Luminosity | Snow |
|---|---|---|---|---|---|---|---|
| 1777756947 | 17.78° C | 52% | 1014.5 hPa | 0 mm | - | 518 W/m² | - |
| 1777756342 | 17.78° C | 49% | 1014.6 hPa | 0 mm | - | 234 W/m² | - |
| 1777755738 | 18.33° C | 50% | 1014.6 hPa | 0 mm | - | 450 W/m² | - |
| 1777755132 | 18.33° C | 50% | 1014.9 hPa | 0 mm | - | 598 W/m² | - |
| 1777754527 | 17.78° C | 49% | 1014.6 hPa | 0 mm | - | 177 W/m² | - |
| 1777753921 | 18.89° C | 48% | 1014.7 hPa | 0 mm | - | 635 W/m² | - |
| 1777753316 | 17.22° C | 48% | 1014.8 hPa | 0 mm | - | 278 W/m² | - |
| 1777752710 | 17.78° C | 49% | 1014.9 hPa | 0 mm | - | 113 W/m² | - |
| 1777752107 | 18.33° C | 44% | 1014.7 hPa | 0 mm | - | 162 W/m² | - |
| 1777751501 | 18.89° C | 42% | 1014.9 hPa | 0 mm | - | 276 W/m² | - |
| 1777750897 | 18.89° C | 45% | 1015.1 hPa | 0 mm | - | 225 W/m² | - |
| 1777750290 | 17.78° C | 46% | 1015.2 hPa | 0 mm | - | 729 W/m² | - |
| 1777749687 | 17.78° C | 50% | 1015.3 hPa | 0 mm | - | 133 W/m² | - |
| 1777749081 | 19.44° C | 44% | 1015.6 hPa | 0 mm | - | 210 W/m² | - |
| 1777748476 | 19.44° C | 44% | 1015.3 hPa | 0 mm | - | 809 W/m² | - |
| 1777747872 | 18.33° C | 45% | 1015.6 hPa | 0 mm | - | 419 W/m² | - |
| 1777747266 | 19.44° C | 41% | 1015.4 hPa | 0 mm | - | 755 W/m² | - |
| 1777746661 | 19.44° C | 44% | 1015.7 hPa | 0 mm | - | 780 W/m² | - |
| 1777746055 | 20° C | 42% | 1015.8 hPa | 0 mm | - | 308 W/m² | - |
| 1777745451 | 19.44° C | 41% | 1015.7 hPa | 0 mm | - | 321 W/m² | - |
| 1777744848 | 18.89° C | 40% | 1016 hPa | 0 mm | - | 811 W/m² | - |
| 1777744241 | 18.33° C | 43% | 1016.1 hPa | 0 mm | - | 205 W/m² | - |
| 1777743636 | 18.89° C | 42% | 1015.8 hPa | 0 mm | - | 262 W/m² | - |
| 1777743033 | 18.33° C | 46% | 1016.1 hPa | 0 mm | - | 823 W/m² | - |
| 1777742427 | 18.33° C | 49% | 1016 hPa | 0 mm | - | 203 W/m² | - |
* Rain latest hour (hover to see other rain measurements)
** Current wind speed in m/s (hover to see current wind gust speed)